Time,TemperatureC,DewpointC,PressurehPa,WindDirection,WindDirectionDegrees,WindSpeedKMH,WindSpeedGustKMH,Humidity,HourlyPrecipMM,Conditions,Clouds,dailyrainMM,SolarRadiationWatts/m^2,UVIndex,SoftwareType,DateUTC
2026-05-07 00:03:49,12.3,12.6,993.9,NW,315,0,0,75.6,0.0,,,0.0,2,0,n/a,2026-05-06T22:03:49Z
2026-05-07 00:09:48,12.3,12.8,994.1,East,90,0.8,2,76.5,0.0,,,0.0,2,0,n/a,2026-05-06T22:09:48Z
2026-05-07 00:12:49,12.3,12.9,993.9,ESE,112,0.6,0.6,77.1,0.0,,,0.0,0,0,n/a,2026-05-06T22:12:49Z
2026-05-07 00:18:48,12.3,12.8,993.9,ESE,112,0.1,0.5,77,0.0,,,0.0,2,0,n/a,2026-05-06T22:18:48Z
2026-05-07 00:24:48,12.1,12.8,994.1,SE,135,0,0,76.8,0.0,,,0.0,2,0,n/a,2026-05-06T22:24:48Z
2026-05-07 00:27:45,12.1,12.7,994.1,North,0,1.3,1.3,76.8,0.0,,,0.5,0,0,n/a,2026-05-06T22:27:45Z
2026-05-07 00:33:49,12,12.6,994.1,SE,128,1.4,1.9,77.2,0.0,,,0.5,2,0,n/a,2026-05-06T22:33:49Z
2026-05-07 00:39:49,11.9,12.6,994.4,SE,135,0.4,1.1,77.5,0.0,,,0.5,2,0,n/a,2026-05-06T22:39:49Z
2026-05-07 00:42:48,11.8,12.7,994.1,SE,135,0.6,0.6,78,0.0,,,0.5,0,0,n/a,2026-05-06T22:42:48Z
2026-05-07 00:48:48,11.8,12.8,994.4,NE,45,0,0,78.5,0.0,,,1.0,2,0,n/a,2026-05-06T22:48:48Z
2026-05-07 00:54:49,11.8,12.7,994.4,East,90,0.1,0.5,78.9,0.0,,,1.5,2,0,n/a,2026-05-06T22:54:49Z
2026-05-07 00:57:49,11.8,12.8,994.4,East,90,0,0,79,0.0,,,1.5,0,0,n/a,2026-05-06T22:57:49Z
2026-05-07 01:03:45,11.8,12.9,994.4,East,90,0,0,79.2,0.0,,,1.5,0,0,n/a,2026-05-06T23:03:45Z
2026-05-07 01:09:49,11.8,12.9,994.4,NE,45,0,0,79.7,0.0,,,2.0,0,0,n/a,2026-05-06T23:09:49Z
2026-05-07 01:12:49,11.8,13,994.4,East,90,0,0,80.1,0.0,,,2.0,2,0,n/a,2026-05-06T23:12:49Z
2026-05-07 01:18:48,11.8,13,994.4,East,90,0.7,1,80.3,0.0,,,2.0,2,0,n/a,2026-05-06T23:18:48Z
2026-05-07 01:24:49,11.9,13.1,994.4,NE,40,0.7,1,81.3,0.0,,,2.0,2,0,n/a,2026-05-06T23:24:49Z
2026-05-07 01:27:49,11.9,13.2,994.4,East,90,0.9,1.3,81.7,0.0,,,2.0,0,0,n/a,2026-05-06T23:27:49Z
2026-05-07 01:33:48,12,13.3,994.4,South,180,4.6,5.8,82.4,0.0,,,2.0,0,0,n/a,2026-05-06T23:33:48Z
2026-05-07 01:39:45,12,13.4,994.4,South,184,4.3,5.2,83.1,0.0,,,2.5,0,0,n/a,2026-05-06T23:39:45Z
2026-05-07 01:42:49,12,13.4,994.1,NW,314,2.5,2.6,83.3,0.0,,,2.5,0,0,n/a,2026-05-06T23:42:49Z
2026-05-07 01:48:48,12,13.5,994.4,SSW,210,3.1,3.7,83.5,0.0,,,2.5,0,0,n/a,2026-05-06T23:48:48Z
2026-05-07 01:54:48,12,13.5,994.4,SW,216,2,3.3,83.6,0.0,,,2.5,2,0,n/a,2026-05-06T23:54:48Z
2026-05-07 01:57:45,12,13.5,994.1,SSW,202,5.6,5.6,83.6,0.0,,,3.0,0,0,n/a,2026-05-06T23:57:45Z
2026-05-07 02:03:49,12,13.6,994.4,West,271,3,3.3,84,0.0,,,4.1,2,0,n/a,2026-05-07T00:03:49Z
2026-05-07 02:09:48,12,13.5,994.4,West,260,2.6,4.4,83.9,0.0,,,5.1,2,0,n/a,2026-05-07T00:09:48Z
2026-05-07 02:12:45,12,13.5,994.4,West,270,0.6,0.6,83.9,0.0,,,5.1,0,0,n/a,2026-05-07T00:12:45Z
2026-05-07 02:18:48,12,13.5,994.4,West,270,1.5,1.6,84,0.0,,,5.6,2,0,n/a,2026-05-07T00:18:48Z
2026-05-07 02:24:48,11.9,13.5,994.4,West,270,0.9,2,83.7,0.0,,,5.6,2,0,n/a,2026-05-07T00:24:48Z
2026-05-07 02:27:49,11.9,13.3,994.4,NW,315,0.3,0.7,83.3,0.0,,,5.6,0,0,n/a,2026-05-07T00:27:49Z
2026-05-07 02:33:48,11.9,13.4,994.4,North,0,0.2,0.7,83.3,0.0,,,6.1,2,0,n/a,2026-05-07T00:33:48Z
2026-05-07 02:39:48,11.9,13.4,994.4,WNW,284,2.2,3.2,83.5,0.0,,,6.1,2,0,n/a,2026-05-07T00:39:48Z
2026-05-07 02:42:49,11.9,13.4,994.4,WSW,247,3.2,3.3,83.6,0.0,,,6.1,0,0,n/a,2026-05-07T00:42:49Z
2026-05-07 02:48:45,11.8,13.3,994.4,West,270,2,2.2,83.5,0.0,,,6.1,2,0,n/a,2026-05-07T00:48:45Z
2026-05-07 02:54:49,11.8,13.3,994.4,WSW,256,2.9,4,83.8,0.0,,,6.6,2,0,n/a,2026-05-07T00:54:49Z
2026-05-07 02:57:49,11.8,13.3,994.4,WSW,258,3.2,3.2,83.7,0.0,,,6.6,0,0,n/a,2026-05-07T00:57:49Z
2026-05-07 03:03:49,11.8,13.2,994.4,West,270,2,4.3,83.9,0.0,,,6.6,2,0,n/a,2026-05-07T01:03:49Z
2026-05-07 03:09:48,11.8,13.2,994.4,NW,316,3.4,3.9,83.9,0.0,,,6.6,2,0,n/a,2026-05-07T01:09:48Z
2026-05-07 03:12:48,11.8,13.3,994.4,West,270,4.8,5.3,83.8,0.0,,,6.6,0,0,n/a,2026-05-07T01:12:48Z
2026-05-07 03:18:48,11.7,13.2,994.4,West,270,3.6,6.5,84,0.0,,,6.6,2,0,n/a,2026-05-07T01:18:48Z
2026-05-07 03:24:45,11.7,13.2,994.4,West,270,2.4,4.5,84.4,0.0,,,6.6,0,0,n/a,2026-05-07T01:24:45Z
2026-05-07 03:27:48,11.7,13.3,994.4,WNW,283,4.9,5.2,84.9,0.0,,,7.1,0,0,n/a,2026-05-07T01:27:48Z
2026-05-07 03:33:48,11.7,13.2,994.6,SSW,211,4,5.3,84.7,0.0,,,7.1,0,0,n/a,2026-05-07T01:33:48Z
2026-05-07 03:36:49,11.6,13.2,994.4,North,0,4.7,5.3,85.1,0.0,,,7.1,0,0,n/a,2026-05-07T01:36:49Z
2026-05-07 03:42:48,11.5,13.2,994.4,SW,214,8.5,9.2,85.6,0.0,,,7.1,0,0,n/a,2026-05-07T01:42:48Z
2026-05-07 03:48:48,11.4,13.2,994.4,SSW,197,8.7,9.2,85.8,0.0,,,7.6,2,0,n/a,2026-05-07T01:48:48Z
2026-05-07 03:54:48,11.4,13.2,994.6,WSW,243,7.6,9.1,86.2,0.0,,,7.6,2,0,n/a,2026-05-07T01:54:48Z
2026-05-07 03:57:45,11.3,13.2,994.4,South,180,11.1,11.1,86.6,0.0,,,7.6,0,0,n/a,2026-05-07T01:57:45Z
2026-05-07 04:03:48,11.3,13.2,994.6,South,180,6.1,6.5,86.5,0.0,,,7.6,2,0,n/a,2026-05-07T02:03:48Z
2026-05-07 04:09:48,11.3,13.1,994.6,SSW,193,7.8,10.3,86.6,0.0,,,7.6,2,0,n/a,2026-05-07T02:09:48Z
2026-05-07 04:12:49,11.2,13,994.6,South,191,6.4,6.5,86.6,0.0,,,7.6,0,0,n/a,2026-05-07T02:12:49Z
2026-05-07 04:18:48,11,13,994.6,SSW,206,11.1,13.6,86.6,0.0,,,7.6,2,0,n/a,2026-05-07T02:18:48Z
2026-05-07 04:24:48,11,12.9,994.9,South,189,5.2,6.5,86.7,0.0,,,7.6,2,0,n/a,2026-05-07T02:24:48Z
2026-05-07 04:27:48,11,12.9,994.9,SSE,166,3.9,4.6,86.8,0.0,,,7.6,2,0,n/a,2026-05-07T02:27:48Z
2026-05-07 04:33:45,11,12.9,994.9,SSE,162,2,2.6,86.8,0.0,,,7.6,2,0,n/a,2026-05-07T02:33:45Z
2026-05-07 04:39:49,11,12.9,994.9,SSW,198,4.2,4.9,86.5,0.0,,,8.1,2,0,n/a,2026-05-07T02:39:49Z
2026-05-07 04:42:48,11,13,994.6,NNW,337,1.8,1.9,86.6,0.0,,,8.1,0,0,n/a,2026-05-07T02:42:48Z
2026-05-07 04:48:49,10.9,12.9,994.9,SSW,212,5.4,8.5,86.4,0.0,,,8.1,0,0,n/a,2026-05-07T02:48:49Z
2026-05-07 04:54:49,11,12.8,994.9,South,180,2,2.6,86.6,0.0,,,8.1,2,0,n/a,2026-05-07T02:54:49Z
2026-05-07 04:57:48,10.9,12.8,994.9,SSW,206,3.8,4.5,86.7,0.0,,,8.1,0,0,n/a,2026-05-07T02:57:48Z
2026-05-07 05:03:49,10.9,12.8,994.6,South,186,1.6,3.3,86.6,0.0,,,8.1,2,0,n/a,2026-05-07T03:03:49Z
2026-05-07 05:09:45,10.8,12.8,994.9,South,180,4.2,4.6,86.7,0.0,,,8.1,0,0,n/a,2026-05-07T03:09:45Z
2026-05-07 05:12:49,10.9,12.7,994.6,WSW,247,3.2,3.2,86.5,0.0,,,8.1,2,0,n/a,2026-05-07T03:12:49Z
2026-05-07 05:18:48,10.9,12.8,994.9,SSW,210,4.1,4.9,86.8,0.0,,,8.6,2,0,n/a,2026-05-07T03:18:48Z
2026-05-07 05:24:49,10.9,12.9,994.9,WSW,248,2.6,4.5,86.9,0.0,,,9.1,0,0,n/a,2026-05-07T03:24:49Z
2026-05-07 05:27:45,10.9,12.9,994.9,SW,225,7.9,7.9,87.1,0.0,,,9.1,2,0,n/a,2026-05-07T03:27:45Z
2026-05-07 05:33:49,10.9,12.8,994.9,SW,227,4.8,5.7,87.4,0.0,,,9.7,2,0,n/a,2026-05-07T03:33:49Z
2026-05-07 05:39:48,10.8,12.9,994.9,SW,225,7.5,9.6,87.5,0.0,,,9.7,2,0,n/a,2026-05-07T03:39:48Z
2026-05-07 05:42:45,10.9,12.9,994.9,South,180,3.3,3.3,87.8,0.0,,,9.7,0,0,n/a,2026-05-07T03:42:45Z
2026-05-07 05:48:48,10.9,13,994.9,SW,231,5.1,5.9,87.6,0.0,,,9.7,2,0,n/a,2026-05-07T03:48:48Z
2026-05-07 05:54:49,10.9,12.9,994.9,West,270,2.3,3.3,87.6,0.0,,,10.2,2,0,n/a,2026-05-07T03:54:49Z
2026-05-07 05:57:49,10.9,12.9,994.9,WNW,292,2.6,3.2,87.9,0.0,,,10.7,2,0,n/a,2026-05-07T03:57:49Z
2026-05-07 06:03:48,10.9,12.8,995.1,SW,233,2.3,2.6,87.6,0.0,,,10.7,4,0,n/a,2026-05-07T04:03:48Z
2026-05-07 06:09:49,10.8,12.8,995.1,WNW,296,7.5,9.8,87.7,0.0,,,11.2,4,0,n/a,2026-05-07T04:09:49Z
2026-05-07 06:12:48,10.9,12.7,995.1,West,281,8.5,8.7,87.6,0.0,,,11.2,4,0,n/a,2026-05-07T04:12:48Z
2026-05-07 06:18:49,10.8,12.7,995.1,NNW,330,4.2,5.9,87.5,0.0,,,11.2,8,0,n/a,2026-05-07T04:18:49Z
2026-05-07 06:24:48,10.8,12.6,995.4,West,270,5.9,7.1,87.3,0.0,,,11.7,10,0,n/a,2026-05-07T04:24:48Z
2026-05-07 06:27:49,10.7,12.6,995.4,West,270,5.8,5.9,87.2,0.0,,,11.7,12,0,n/a,2026-05-07T04:27:49Z
2026-05-07 06:33:45,10.6,12.6,995.4,WNW,286,7,8.5,86.8,0.0,,,11.7,14,0,n/a,2026-05-07T04:33:45Z
2026-05-07 06:39:49,10.7,12.5,995.4,West,270,4.5,5.2,86.8,0.0,,,11.7,16,0,n/a,2026-05-07T04:39:49Z
2026-05-07 06:42:48,10.7,12.4,995.6,West,270,2.6,2.7,86.3,0.0,,,11.7,16,0,n/a,2026-05-07T04:42:48Z
2026-05-07 06:48:48,10.5,12.4,995.9,West,261,3.6,3.9,86.4,0.0,,,11.7,18,0,n/a,2026-05-07T04:48:48Z
2026-05-07 06:54:48,10.5,12.4,995.9,WSW,257,4.3,4.8,86.5,0.0,,,11.7,22,0,n/a,2026-05-07T04:54:48Z
2026-05-07 06:57:48,10.5,12.3,995.9,West,270,3.5,3.7,86.5,0.0,,,11.7,22,0,n/a,2026-05-07T04:57:48Z
2026-05-07 07:03:49,10.6,12.2,995.9,West,270,5.3,6.7,86.3,0.0,,,11.7,24,0,n/a,2026-05-07T05:03:49Z
2026-05-07 07:09:45,10.6,12.3,995.9,SW,236,3.3,5.1,86.2,0.0,,,11.7,30,0,n/a,2026-05-07T05:09:45Z
2026-05-07 07:12:49,10.6,12.2,995.9,West,270,5.1,6.5,86.2,0.0,,,11.7,34,0,n/a,2026-05-07T05:12:49Z
2026-05-07 07:18:48,10.6,12.2,996.1,West,278,5.7,7.8,86.3,0.0,,,11.7,44,0,n/a,2026-05-07T05:18:48Z
2026-05-07 07:24:49,10.6,12.2,996.1,West,270,3.8,6,86.2,0.0,,,11.7,46,0,n/a,2026-05-07T05:24:49Z
2026-05-07 07:27:45,10.8,12.2,996.1,NW,315,1.3,1.3,86,0.0,,,11.7,38,0,n/a,2026-05-07T05:27:45Z
2026-05-07 07:33:49,10.7,12.2,996.4,NW,318,2.6,3.9,85.7,0.0,,,11.7,36,0,n/a,2026-05-07T05:33:49Z
2026-05-07 07:39:48,10.7,12.2,996.4,WNW,297,5.5,6.6,85.4,0.0,,,11.7,28,0,n/a,2026-05-07T05:39:48Z
2026-05-07 07:42:45,10.6,12.1,996.4,West,270,3.3,3.3,85.4,0.0,,,11.7,26,0,n/a,2026-05-07T05:42:45Z
2026-05-07 07:48:49,10.5,12.1,996.4,WNW,289,5.5,6.5,85.2,0.0,,,12.2,30,0,n/a,2026-05-07T05:48:49Z
2026-05-07 07:54:49,10.6,12,996.4,SW,236,2.9,4.6,85.3,0.0,,,12.2,36,0,n/a,2026-05-07T05:54:49Z
2026-05-07 07:57:48,10.6,12.1,996.4,SW,234,2.9,3.3,85.8,0.0,,,12.2,38,0,n/a,2026-05-07T05:57:48Z
2026-05-07 08:03:49,10.6,12.1,996.6,West,270,2.9,4.5,85.8,0.0,,,12.2,40,0,n/a,2026-05-07T06:03:49Z
2026-05-07 08:09:48,10.6,12.1,996.8,WNW,285,1.9,3.2,85.6,0.0,,,12.2,50,0,n/a,2026-05-07T06:09:48Z
2026-05-07 08:12:48,10.7,12.1,996.8,West,270,0,0,85.5,0.0,,,12.2,56,0,n/a,2026-05-07T06:12:48Z
2026-05-07 08:18:49,10.8,12.1,996.8,North,0,5.7,5.9,85.4,0.0,,,12.2,58,0,n/a,2026-05-07T06:18:49Z
2026-05-07 08:24:49,10.7,12.1,996.8,WSW,254,3.2,3.3,85.2,0.0,,,12.2,56,0,n/a,2026-05-07T06:24:49Z
2026-05-07 08:27:48,10.8,12,996.8,NW,307,3.2,3.3,85,0.0,,,12.2,56,0,n/a,2026-05-07T06:27:48Z
2026-05-07 08:33:45,10.8,12.1,996.8,WNW,294,3.9,5.2,85,0.0,,,12.2,56,0,n/a,2026-05-07T06:33:45Z
2026-05-07 08:39:49,10.8,12.1,997.1,WNW,294,3.5,3.9,84.9,0.0,,,12.2,50,0,n/a,2026-05-07T06:39:49Z
2026-05-07 08:42:49,10.8,12.1,997.1,WSW,247,2.3,2.6,85,0.0,,,12.2,48,0,n/a,2026-05-07T06:42:49Z
2026-05-07 08:48:49,10.8,12,997.3,West,270,2.8,4.1,85.1,0.0,,,12.2,48,0,n/a,2026-05-07T06:48:49Z
2026-05-07 08:54:48,10.8,12,997.1,West,272,1.9,3.3,85,0.0,,,12.2,52,0,n/a,2026-05-07T06:54:48Z
2026-05-07 08:57:49,10.8,12,997.3,North,0,4,4.2,85.1,0.0,,,12.2,52,0,n/a,2026-05-07T06:57:49Z
2026-05-07 09:03:49,10.8,12,997.3,West,265,2.9,3.9,85.1,0.0,,,12.2,74,0,n/a,2026-05-07T07:03:49Z
2026-05-07 09:09:45,10.9,12,997.3,WNW,286,3.4,4.3,85.1,0.0,,,12.2,82,0,n/a,2026-05-07T07:09:45Z
2026-05-07 09:12:48,10.9,12.1,997.3,WNW,303,4.1,4.3,85,0.0,,,12.2,72,0,n/a,2026-05-07T07:12:48Z
2026-05-07 09:18:48,10.9,12,997.3,WNW,286,5,7.2,84.4,0.0,,,12.7,68,0,n/a,2026-05-07T07:18:48Z
2026-05-07 09:24:48,10.9,12,997.6,WSW,245,3.2,3.9,84.2,0.0,,,12.7,72,0,n/a,2026-05-07T07:24:48Z
2026-05-07 09:27:45,10.9,12.1,997.6,West,270,2,2,84.4,0.0,,,12.7,76,0,n/a,2026-05-07T07:27:45Z
2026-05-07 09:33:49,11,12,997.6,West,259,2.3,4.1,84.4,0.0,,,12.7,84,0,n/a,2026-05-07T07:33:49Z
2026-05-07 09:39:48,10.9,12,997.8,WSW,257,4.4,6.6,84.2,0.0,,,12.7,96,0,n/a,2026-05-07T07:39:48Z
2026-05-07 09:42:48,11.1,12,997.8,West,270,2.7,3.3,84,0.0,,,12.7,104,0,n/a,2026-05-07T07:42:48Z
2026-05-07 09:48:49,11.2,12,997.8,WNW,289,6.2,8.3,83.9,0.0,,,12.7,104,0,n/a,2026-05-07T07:48:49Z
2026-05-07 09:54:49,11,11.9,997.8,West,273,5.8,8.4,83.4,0.0,,,12.7,98,0,n/a,2026-05-07T07:54:49Z
2026-05-07 09:57:49,11.2,11.8,997.8,West,270,4.3,4.3,83.2,0.0,,,12.7,98,0,n/a,2026-05-07T07:57:49Z
2026-05-07 10:03:48,11.3,12,997.8,West,268,4.9,5.9,83.8,0.0,,,12.7,100,0,n/a,2026-05-07T08:03:48Z
2026-05-07 10:09:45,11.4,11.9,997.8,West,262,5.1,5.2,83.6,0.0,,,12.7,104,0,n/a,2026-05-07T08:09:45Z